sensor_id;sensor_type;location;lat;lon;timestamp;P1;durP1;ratioP1;P2;durP2;ratioP2
62071;SDS011;48031;48.542;13.232;2023-03-07T00:03:13;9.15;;;4.60;;
62071;SDS011;48031;48.542;13.232;2023-03-07T00:07:16;9.63;;;4.70;;
62071;SDS011;48031;48.542;13.232;2023-03-07T00:11:18;7.82;;;3.92;;
62071;SDS011;48031;48.542;13.232;2023-03-07T00:15:20;8.00;;;3.80;;
62071;SDS011;48031;48.542;13.232;2023-03-07T00:19:22;7.10;;;3.80;;
62071;SDS011;48031;48.542;13.232;2023-03-07T00:23:24;7.40;;;3.70;;
62071;SDS011;48031;48.542;13.232;2023-03-07T00:27:26;6.95;;;3.60;;
62071;SDS011;48031;48.542;13.232;2023-03-07T00:31:30;4.82;;;3.00;;
62071;SDS011;48031;48.542;13.232;2023-03-07T00:35:32;5.85;;;2.90;;
62071;SDS011;48031;48.542;13.232;2023-03-07T00:39:34;4.00;;;2.50;;
62071;SDS011;48031;48.542;13.232;2023-03-07T00:43:36;4.97;;;3.00;;
62071;SDS011;48031;48.542;13.232;2023-03-07T00:47:38;5.32;;;3.38;;
62071;SDS011;48031;48.542;13.232;2023-03-07T00:51:40;5.72;;;3.17;;
62071;SDS011;48031;48.542;13.232;2023-03-07T00:55:51;4.15;;;2.63;;
62071;SDS011;48031;48.542;13.232;2023-03-07T00:59:58;6.05;;;3.33;;
62071;SDS011;48031;48.542;13.232;2023-03-07T01:04:00;4.85;;;3.08;;
62071;SDS011;48031;48.542;13.232;2023-03-07T01:08:01;5.88;;;3.38;;
62071;SDS011;48031;48.542;13.232;2023-03-07T01:12:03;6.03;;;3.42;;
62071;SDS011;48031;48.542;13.232;2023-03-07T01:16:08;5.38;;;3.30;;
62071;SDS011;48031;48.542;13.232;2023-03-07T01:20:21;4.47;;;3.00;;
62071;SDS011;48031;48.542;13.232;2023-03-07T01:24:23;3.90;;;2.60;;
62071;SDS011;48031;48.542;13.232;2023-03-07T01:28:25;5.22;;;3.17;;
62071;SDS011;48031;48.542;13.232;2023-03-07T01:32:27;8.57;;;4.30;;
62071;SDS011;48031;48.542;13.232;2023-03-07T01:36:30;6.93;;;3.35;;
62071;SDS011;48031;48.542;13.232;2023-03-07T01:40:38;6.15;;;2.67;;
62071;SDS011;48031;48.542;13.232;2023-03-07T01:49:20;8.30;;;3.40;;
62071;SDS011;48031;48.542;13.232;2023-03-07T01:53:36;5.80;;;3.15;;
62071;SDS011;48031;48.542;13.232;2023-03-07T01:57:39;5.15;;;2.75;;
62071;SDS011;48031;48.542;13.232;2023-03-07T02:01:43;5.15;;;2.72;;
62071;SDS011;48031;48.542;13.232;2023-03-07T02:05:52;4.18;;;2.60;;
62071;SDS011;48031;48.542;13.232;2023-03-07T02:09:57;4.55;;;2.72;;
62071;SDS011;48031;48.542;13.232;2023-03-07T02:14:00;4.63;;;2.35;;
62071;SDS011;48031;48.542;13.232;2023-03-07T02:18:02;4.93;;;2.85;;
62071;SDS011;48031;48.542;13.232;2023-03-07T02:30:31;12.55;;;5.03;;
62071;SDS011;48031;48.542;13.232;2023-03-07T02:34:33;9.82;;;5.10;;
62071;SDS011;48031;48.542;13.232;2023-03-07T02:38:48;11.80;;;5.53;;
62071;SDS011;48031;48.542;13.232;2023-03-07T02:42:53;11.75;;;5.75;;
62071;SDS011;48031;48.542;13.232;2023-03-07T02:46:59;10.10;;;5.43;;
62071;SDS011;48031;48.542;13.232;2023-03-07T02:51:02;7.03;;;3.92;;
62071;SDS011;48031;48.542;13.232;2023-03-07T02:55:04;8.57;;;4.65;;
62071;SDS011;48031;48.542;13.232;2023-03-07T02:59:11;9.23;;;4.95;;
62071;SDS011;48031;48.542;13.232;2023-03-07T03:03:13;8.10;;;4.22;;
62071;SDS011;48031;48.542;13.232;2023-03-07T03:07:15;8.35;;;4.18;;
62071;SDS011;48031;48.542;13.232;2023-03-07T03:11:17;11.25;;;5.53;;
62071;SDS011;48031;48.542;13.232;2023-03-07T03:15:19;10.43;;;5.10;;
62071;SDS011;48031;48.542;13.232;2023-03-07T03:19:21;12.00;;;5.70;;
62071;SDS011;48031;48.542;13.232;2023-03-07T03:23:25;10.80;;;5.32;;
62071;SDS011;48031;48.542;13.232;2023-03-07T03:27:28;11.02;;;5.47;;
62071;SDS011;48031;48.542;13.232;2023-03-07T03:31:32;13.75;;;6.35;;
62071;SDS011;48031;48.542;13.232;2023-03-07T03:35:38;15.80;;;7.60;;
62071;SDS011;48031;48.542;13.232;2023-03-07T03:39:40;12.95;;;6.00;;
62071;SDS011;48031;48.542;13.232;2023-03-07T03:43:43;11.70;;;5.50;;
62071;SDS011;48031;48.542;13.232;2023-03-07T03:47:45;12.13;;;6.53;;
62071;SDS011;48031;48.542;13.232;2023-03-07T03:51:49;13.18;;;5.93;;
62071;SDS011;48031;48.542;13.232;2023-03-07T03:55:52;16.38;;;7.38;;
62071;SDS011;48031;48.542;13.232;2023-03-07T04:00:20;15.07;;;6.82;;
62071;SDS011;48031;48.542;13.232;2023-03-07T04:04:22;15.13;;;7.43;;
62071;SDS011;48031;48.542;13.232;2023-03-07T04:08:24;15.65;;;7.63;;
62071;SDS011;48031;48.542;13.232;2023-03-07T04:12:26;14.63;;;7.15;;
62071;SDS011;48031;48.542;13.232;2023-03-07T04:16:28;13.85;;;6.55;;
62071;SDS011;48031;48.542;13.232;2023-03-07T04:20:31;15.38;;;7.25;;
62071;SDS011;48031;48.542;13.232;2023-03-07T04:24:33;13.45;;;5.70;;
62071;SDS011;48031;48.542;13.232;2023-03-07T04:28:36;14.43;;;6.72;;
62071;SDS011;48031;48.542;13.232;2023-03-07T04:33:07;11.32;;;5.45;;
62071;SDS011;48031;48.542;13.232;2023-03-07T04:37:09;12.65;;;6.18;;
62071;SDS011;48031;48.542;13.232;2023-03-07T04:41:15;15.00;;;6.88;;
62071;SDS011;48031;48.542;13.232;2023-03-07T04:45:20;16.30;;;7.22;;
62071;SDS011;48031;48.542;13.232;2023-03-07T04:49:22;15.30;;;7.68;;
62071;SDS011;48031;48.542;13.232;2023-03-07T04:53:25;13.70;;;7.07;;
62071;SDS011;48031;48.542;13.232;2023-03-07T04:57:27;13.75;;;6.15;;
62071;SDS011;48031;48.542;13.232;2023-03-07T05:01:29;15.95;;;6.90;;
62071;SDS011;48031;48.542;13.232;2023-03-07T05:05:32;17.30;;;8.10;;
62071;SDS011;48031;48.542;13.232;2023-03-07T05:09:38;17.38;;;8.25;;
62071;SDS011;48031;48.542;13.232;2023-03-07T05:13:41;12.18;;;5.75;;
62071;SDS011;48031;48.542;13.232;2023-03-07T05:17:43;16.02;;;8.18;;
62071;SDS011;48031;48.542;13.232;2023-03-07T05:21:46;16.98;;;8.68;;
62071;SDS011;48031;48.542;13.232;2023-03-07T05:25:50;19.40;;;8.02;;
62071;SDS011;48031;48.542;13.232;2023-03-07T05:29:52;19.75;;;8.93;;
62071;SDS011;48031;48.542;13.232;2023-03-07T05:33:54;18.70;;;8.55;;
62071;SDS011;48031;48.542;13.232;2023-03-07T05:37:57;19.15;;;8.68;;
62071;SDS011;48031;48.542;13.232;2023-03-07T05:41:59;19.42;;;8.93;;
62071;SDS011;48031;48.542;13.232;2023-03-07T05:46:03;14.30;;;7.40;;
62071;SDS011;48031;48.542;13.232;2023-03-07T05:50:06;16.83;;;8.05;;
62071;SDS011;48031;48.542;13.232;2023-03-07T05:54:10;20.10;;;8.65;;
62071;SDS011;48031;48.542;13.232;2023-03-07T05:58:13;17.27;;;8.30;;
62071;SDS011;48031;48.542;13.232;2023-03-07T06:02:15;21.95;;;7.55;;
62071;SDS011;48031;48.542;13.232;2023-03-07T06:06:17;15.75;;;7.55;;
62071;SDS011;48031;48.542;13.232;2023-03-07T06:10:20;16.58;;;8.23;;
62071;SDS011;48031;48.542;13.232;2023-03-07T06:14:23;18.35;;;7.60;;
62071;SDS011;48031;48.542;13.232;2023-03-07T06:18:26;13.45;;;6.45;;
62071;SDS011;48031;48.542;13.232;2023-03-07T06:22:28;16.75;;;7.88;;
62071;SDS011;48031;48.542;13.232;2023-03-07T06:26:33;13.20;;;6.07;;
62071;SDS011;48031;48.542;13.232;2023-03-07T06:30:36;12.35;;;6.57;;
62071;SDS011;48031;48.542;13.232;2023-03-07T06:34:38;14.32;;;6.75;;
62071;SDS011;48031;48.542;13.232;2023-03-07T06:38:41;15.75;;;7.07;;
62071;SDS011;48031;48.542;13.232;2023-03-07T06:42:43;15.23;;;7.30;;
62071;SDS011;48031;48.542;13.232;2023-03-07T06:46:45;15.45;;;6.95;;
62071;SDS011;48031;48.542;13.232;2023-03-07T06:50:52;13.13;;;6.93;;
62071;SDS011;48031;48.542;13.232;2023-03-07T06:54:54;12.63;;;6.50;;
62071;SDS011;48031;48.542;13.232;2023-03-07T06:58:56;11.77;;;5.65;;
62071;SDS011;48031;48.542;13.232;2023-03-07T07:02:59;12.05;;;5.97;;
62071;SDS011;48031;48.542;13.232;2023-03-07T07:07:01;16.05;;;7.18;;
62071;SDS011;48031;48.542;13.232;2023-03-07T07:11:03;13.02;;;6.47;;
62071;SDS011;48031;48.542;13.232;2023-03-07T07:15:05;14.57;;;7.00;;
62071;SDS011;48031;48.542;13.232;2023-03-07T07:19:08;12.05;;;5.90;;
62071;SDS011;48031;48.542;13.232;2023-03-07T07:23:10;12.82;;;6.43;;
62071;SDS011;48031;48.542;13.232;2023-03-07T07:27:12;12.57;;;6.32;;
62071;SDS011;48031;48.542;13.232;2023-03-07T07:31:14;14.80;;;7.30;;
62071;SDS011;48031;48.542;13.232;2023-03-07T07:35:16;15.82;;;7.07;;
62071;SDS011;48031;48.542;13.232;2023-03-07T07:39:19;13.77;;;6.80;;
62071;SDS011;48031;48.542;13.232;2023-03-07T07:43:22;14.82;;;6.82;;
62071;SDS011;48031;48.542;13.232;2023-03-07T07:47:43;14.20;;;6.72;;
62071;SDS011;48031;48.542;13.232;2023-03-07T07:51:45;12.73;;;6.38;;
62071;SDS011;48031;48.542;13.232;2023-03-07T07:55:47;13.27;;;6.90;;
62071;SDS011;48031;48.542;13.232;2023-03-07T07:59:50;9.85;;;5.43;;
62071;SDS011;48031;48.542;13.232;2023-03-07T08:03:52;13.35;;;6.63;;
62071;SDS011;48031;48.542;13.232;2023-03-07T08:07:54;11.10;;;6.30;;
62071;SDS011;48031;48.542;13.232;2023-03-07T08:11:57;11.48;;;5.53;;
62071;SDS011;48031;48.542;13.232;2023-03-07T08:15:59;13.23;;;6.28;;
62071;SDS011;48031;48.542;13.232;2023-03-07T08:20:00;13.93;;;7.25;;
62071;SDS011;48031;48.542;13.232;2023-03-07T08:24:08;12.40;;;6.38;;
62071;SDS011;48031;48.542;13.232;2023-03-07T08:28:10;13.02;;;6.32;;
62071;SDS011;48031;48.542;13.232;2023-03-07T08:32:12;10.52;;;6.15;;
62071;SDS011;48031;48.542;13.232;2023-03-07T08:36:15;13.75;;;5.70;;
62071;SDS011;48031;48.542;13.232;2023-03-07T08:40:17;13.07;;;6.20;;
62071;SDS011;48031;48.542;13.232;2023-03-07T08:44:19;12.98;;;6.13;;
62071;SDS011;48031;48.542;13.232;2023-03-07T08:48:20;9.93;;;5.35;;
62071;SDS011;48031;48.542;13.232;2023-03-07T08:52:22;10.32;;;5.40;;
62071;SDS011;48031;48.542;13.232;2023-03-07T08:56:24;12.68;;;6.57;;
62071;SDS011;48031;48.542;13.232;2023-03-07T09:00:26;10.15;;;5.85;;
62071;SDS011;48031;48.542;13.232;2023-03-07T09:04:28;12.00;;;6.25;;
62071;SDS011;48031;48.542;13.232;2023-03-07T09:08:30;10.75;;;5.65;;
62071;SDS011;48031;48.542;13.232;2023-03-07T09:12:32;10.73;;;5.70;;
62071;SDS011;48031;48.542;13.232;2023-03-07T09:16:35;8.80;;;5.25;;
62071;SDS011;48031;48.542;13.232;2023-03-07T09:20:37;12.35;;;6.18;;
62071;SDS011;48031;48.542;13.232;2023-03-07T09:24:39;12.88;;;6.65;;
62071;SDS011;48031;48.542;13.232;2023-03-07T09:28:41;13.43;;;6.78;;
62071;SDS011;48031;48.542;13.232;2023-03-07T09:32:43;11.98;;;6.05;;
62071;SDS011;48031;48.542;13.232;2023-03-07T09:36:45;9.15;;;5.25;;
62071;SDS011;48031;48.542;13.232;2023-03-07T09:40:47;11.00;;;6.20;;
62071;SDS011;48031;48.542;13.232;2023-03-07T09:44:53;9.88;;;5.80;;
62071;SDS011;48031;48.542;13.232;2023-03-07T09:49:39;10.60;;;5.22;;
62071;SDS011;48031;48.542;13.232;2023-03-07T09:53:59;9.88;;;6.22;;
62071;SDS011;48031;48.542;13.232;2023-03-07T09:58:06;13.38;;;6.47;;
62071;SDS011;48031;48.542;13.232;2023-03-07T10:06:38;10.93;;;6.55;;
62071;SDS011;48031;48.542;13.232;2023-03-07T10:10:42;9.85;;;5.63;;
62071;SDS011;48031;48.542;13.232;2023-03-07T10:14:58;9.32;;;5.72;;
62071;SDS011;48031;48.542;13.232;2023-03-07T10:19:12;9.00;;;5.80;;
62071;SDS011;48031;48.542;13.232;2023-03-07T10:28:15;10.63;;;5.65;;
62071;SDS011;48031;48.542;13.232;2023-03-07T10:32:38;8.00;;;5.10;;
62071;SDS011;48031;48.542;13.232;2023-03-07T10:36:45;8.27;;;5.60;;
62071;SDS011;48031;48.542;13.232;2023-03-07T10:41:13;9.60;;;5.60;;
62071;SDS011;48031;48.542;13.232;2023-03-07T10:45:17;7.53;;;4.63;;
62071;SDS011;48031;48.542;13.232;2023-03-07T10:49:27;7.95;;;5.22;;
62071;SDS011;48031;48.542;13.232;2023-03-07T10:53:33;9.32;;;5.28;;
62071;SDS011;48031;48.542;13.232;2023-03-07T10:57:36;7.80;;;5.50;;
62071;SDS011;48031;48.542;13.232;2023-03-07T11:01:50;7.88;;;4.72;;
62071;SDS011;48031;48.542;13.232;2023-03-07T11:05:54;7.25;;;5.00;;
62071;SDS011;48031;48.542;13.232;2023-03-07T11:09:57;7.70;;;4.60;;
62071;SDS011;48031;48.542;13.232;2023-03-07T11:14:04;7.38;;;4.60;;
62071;SDS011;48031;48.542;13.232;2023-03-07T11:18:31;7.93;;;5.47;;
62071;SDS011;48031;48.542;13.232;2023-03-07T11:22:32;6.50;;;4.38;;
62071;SDS011;48031;48.542;13.232;2023-03-07T11:26:39;7.55;;;4.90;;
62071;SDS011;48031;48.542;13.232;2023-03-07T11:30:43;6.60;;;4.78;;
62071;SDS011;48031;48.542;13.232;2023-03-07T11:34:51;5.57;;;4.20;;
62071;SDS011;48031;48.542;13.232;2023-03-07T11:39:09;6.82;;;4.70;;
62071;SDS011;48031;48.542;13.232;2023-03-07T11:56:50;5.88;;;4.55;;
62071;SDS011;48031;48.542;13.232;2023-03-07T12:05:03;7.78;;;5.68;;
62071;SDS011;48031;48.542;13.232;2023-03-07T12:22:43;5.07;;;4.40;;
62071;SDS011;48031;48.542;13.232;2023-03-07T12:26:57;6.82;;;4.90;;
62071;SDS011;48031;48.542;13.232;2023-03-07T12:31:10;6.18;;;5.40;;
62071;SDS011;48031;48.542;13.232;2023-03-07T12:35:41;6.43;;;5.60;;
62071;SDS011;48031;48.542;13.232;2023-03-07T12:39:48;6.85;;;5.32;;
62071;SDS011;48031;48.542;13.232;2023-03-07T12:43:53;6.70;;;5.82;;
62071;SDS011;48031;48.542;13.232;2023-03-07T12:48:04;6.70;;;5.70;;
62071;SDS011;48031;48.542;13.232;2023-03-07T12:52:33;7.55;;;5.90;;
62071;SDS011;48031;48.542;13.232;2023-03-07T13:01:13;7.53;;;6.05;;
62071;SDS011;48031;48.542;13.232;2023-03-07T13:05:22;8.40;;;6.88;;
62071;SDS011;48031;48.542;13.232;2023-03-07T13:09:26;8.23;;;6.47;;
62071;SDS011;48031;48.542;13.232;2023-03-07T13:13:51;7.93;;;6.88;;
62071;SDS011;48031;48.542;13.232;2023-03-07T13:17:54;8.15;;;6.68;;
62071;SDS011;48031;48.542;13.232;2023-03-07T13:21:57;7.38;;;6.57;;
62071;SDS011;48031;48.542;13.232;2023-03-07T13:26:00;9.55;;;7.38;;
62071;SDS011;48031;48.542;13.232;2023-03-07T13:38:51;9.32;;;8.32;;
62071;SDS011;48031;48.542;13.232;2023-03-07T13:42:53;9.27;;;8.10;;
62071;SDS011;48031;48.542;13.232;2023-03-07T13:46:55;9.65;;;8.23;;
62071;SDS011;48031;48.542;13.232;2023-03-07T13:51:05;10.45;;;9.23;;
62071;SDS011;48031;48.542;13.232;2023-03-07T13:55:13;10.03;;;8.60;;
62071;SDS011;48031;48.542;13.232;2023-03-07T13:59:22;9.98;;;7.97;;
62071;SDS011;48031;48.542;13.232;2023-03-07T14:03:30;9.30;;;7.88;;
62071;SDS011;48031;48.542;13.232;2023-03-07T14:07:36;12.55;;;9.48;;
62071;SDS011;48031;48.542;13.232;2023-03-07T14:11:48;11.52;;;8.63;;
62071;SDS011;48031;48.542;13.232;2023-03-07T14:28:49;11.35;;;7.63;;
62071;SDS011;48031;48.542;13.232;2023-03-07T14:32:52;12.35;;;6.70;;
62071;SDS011;48031;48.542;13.232;2023-03-07T14:37:01;10.90;;;7.43;;
62071;SDS011;48031;48.542;13.232;2023-03-07T14:54:20;11.50;;;6.65;;
62071;SDS011;48031;48.542;13.232;2023-03-07T14:58:30;12.07;;;6.88;;
62071;SDS011;48031;48.542;13.232;2023-03-07T15:07:16;12.77;;;7.50;;
62071;SDS011;48031;48.542;13.232;2023-03-07T15:15:45;13.23;;;7.50;;
62071;SDS011;48031;48.542;13.232;2023-03-07T15:19:57;11.73;;;7.03;;
62071;SDS011;48031;48.542;13.232;2023-03-07T15:24:03;14.43;;;7.15;;
62071;SDS011;48031;48.542;13.232;2023-03-07T15:28:06;12.75;;;6.70;;
62071;SDS011;48031;48.542;13.232;2023-03-07T15:32:38;10.60;;;6.32;;
62071;SDS011;48031;48.542;13.232;2023-03-07T15:36:41;14.15;;;7.50;;
62071;SDS011;48031;48.542;13.232;2023-03-07T15:40:43;14.23;;;7.18;;
62071;SDS011;48031;48.542;13.232;2023-03-07T15:44:53;11.18;;;6.85;;
62071;SDS011;48031;48.542;13.232;2023-03-07T15:49:02;12.95;;;6.25;;
62071;SDS011;48031;48.542;13.232;2023-03-07T15:53:07;11.68;;;6.72;;
62071;SDS011;48031;48.542;13.232;2023-03-07T15:57:21;15.07;;;7.70;;
62071;SDS011;48031;48.542;13.232;2023-03-07T16:01:28;11.57;;;5.97;;
62071;SDS011;48031;48.542;13.232;2023-03-07T16:05:31;11.00;;;5.95;;
62071;SDS011;48031;48.542;13.232;2023-03-07T16:09:37;13.80;;;6.80;;
62071;SDS011;48031;48.542;13.232;2023-03-07T16:13:39;12.35;;;6.65;;
62071;SDS011;48031;48.542;13.232;2023-03-07T16:17:44;12.38;;;6.70;;
62071;SDS011;48031;48.542;13.232;2023-03-07T16:21:47;10.10;;;5.93;;
62071;SDS011;48031;48.542;13.232;2023-03-07T16:25:49;9.77;;;5.80;;
62071;SDS011;48031;48.542;13.232;2023-03-07T16:29:51;11.75;;;6.22;;
62071;SDS011;48031;48.542;13.232;2023-03-07T16:33:54;9.90;;;6.00;;
62071;SDS011;48031;48.542;13.232;2023-03-07T16:37:56;10.48;;;5.82;;
62071;SDS011;48031;48.542;13.232;2023-03-07T16:41:58;10.65;;;5.68;;
62071;SDS011;48031;48.542;13.232;2023-03-07T16:46:01;9.52;;;5.38;;
62071;SDS011;48031;48.542;13.232;2023-03-07T16:50:11;11.88;;;5.30;;
62071;SDS011;48031;48.542;13.232;2023-03-07T16:54:14;9.13;;;5.20;;
62071;SDS011;48031;48.542;13.232;2023-03-07T16:58:21;10.50;;;5.90;;
62071;SDS011;48031;48.542;13.232;2023-03-07T17:02:25;14.00;;;6.00;;
62071;SDS011;48031;48.542;13.232;2023-03-07T17:06:27;11.88;;;5.82;;
62071;SDS011;48031;48.542;13.232;2023-03-07T17:10:39;13.25;;;5.75;;
62071;SDS011;48031;48.542;13.232;2023-03-07T17:14:44;10.63;;;5.63;;
62071;SDS011;48031;48.542;13.232;2023-03-07T17:18:46;10.85;;;5.63;;
62071;SDS011;48031;48.542;13.232;2023-03-07T17:22:48;11.98;;;6.55;;
62071;SDS011;48031;48.542;13.232;2023-03-07T17:26:51;11.88;;;5.82;;
62071;SDS011;48031;48.542;13.232;2023-03-07T17:30:54;11.27;;;5.97;;
62071;SDS011;48031;48.542;13.232;2023-03-07T17:34:55;12.15;;;6.47;;
62071;SDS011;48031;48.542;13.232;2023-03-07T17:38:57;10.90;;;5.60;;
62071;SDS011;48031;48.542;13.232;2023-03-07T17:42:59;11.10;;;5.68;;
62071;SDS011;48031;48.542;13.232;2023-03-07T17:47:01;12.35;;;5.43;;
62071;SDS011;48031;48.542;13.232;2023-03-07T17:51:06;11.13;;;4.68;;
62071;SDS011;48031;48.542;13.232;2023-03-07T17:55:13;6.97;;;3.38;;
62071;SDS011;48031;48.542;13.232;2023-03-07T17:59:16;3.67;;;2.50;;
62071;SDS011;48031;48.542;13.232;2023-03-07T18:03:17;6.30;;;2.88;;
62071;SDS011;48031;48.542;13.232;2023-03-07T18:07:19;6.18;;;3.33;;
62071;SDS011;48031;48.542;13.232;2023-03-07T18:11:22;5.40;;;2.85;;
62071;SDS011;48031;48.542;13.232;2023-03-07T18:15:24;7.57;;;3.30;;
62071;SDS011;48031;48.542;13.232;2023-03-07T18:19:28;3.95;;;2.60;;
62071;SDS011;48031;48.542;13.232;2023-03-07T18:23:29;7.00;;;3.20;;
62071;SDS011;48031;48.542;13.232;2023-03-07T18:27:32;7.50;;;3.20;;
62071;SDS011;48031;48.542;13.232;2023-03-07T18:31:34;3.78;;;2.58;;
62071;SDS011;48031;48.542;13.232;2023-03-07T18:35:36;4.13;;;2.70;;
62071;SDS011;48031;48.542;13.232;2023-03-07T18:39:38;4.05;;;2.65;;
62071;SDS011;48031;48.542;13.232;2023-03-07T18:43:40;4.85;;;2.42;;
62071;SDS011;48031;48.542;13.232;2023-03-07T18:47:42;4.43;;;2.50;;
62071;SDS011;48031;48.542;13.232;2023-03-07T18:51:44;4.63;;;2.55;;
62071;SDS011;48031;48.542;13.232;2023-03-07T18:55:48;4.03;;;2.40;;
62071;SDS011;48031;48.542;13.232;2023-03-07T18:59:50;3.40;;;2.60;;
62071;SDS011;48031;48.542;13.232;2023-03-07T19:03:52;6.40;;;2.45;;
62071;SDS011;48031;48.542;13.232;2023-03-07T19:07:55;5.97;;;3.13;;
62071;SDS011;48031;48.542;13.232;2023-03-07T19:11:57;4.88;;;3.60;;
62071;SDS011;48031;48.542;13.232;2023-03-07T19:16:00;7.95;;;4.28;;
62071;SDS011;48031;48.542;13.232;2023-03-07T19:20:06;9.57;;;4.90;;
62071;SDS011;48031;48.542;13.232;2023-03-07T19:24:09;8.80;;;5.10;;
62071;SDS011;48031;48.542;13.232;2023-03-07T19:28:12;9.82;;;4.85;;
62071;SDS011;48031;48.542;13.232;2023-03-07T19:32:14;10.30;;;5.57;;
62071;SDS011;48031;48.542;13.232;2023-03-07T19:36:19;9.55;;;4.82;;
62071;SDS011;48031;48.542;13.232;2023-03-07T19:40:22;8.13;;;4.47;;
62071;SDS011;48031;48.542;13.232;2023-03-07T19:44:27;7.20;;;3.88;;
62071;SDS011;48031;48.542;13.232;2023-03-07T19:48:28;8.63;;;4.45;;
62071;SDS011;48031;48.542;13.232;2023-03-07T19:52:30;5.32;;;3.70;;
62071;SDS011;48031;48.542;13.232;2023-03-07T19:56:32;6.40;;;3.72;;
62071;SDS011;48031;48.542;13.232;2023-03-07T20:00:38;7.68;;;3.90;;
62071;SDS011;48031;48.542;13.232;2023-03-07T20:04:42;9.10;;;4.57;;
62071;SDS011;48031;48.542;13.232;2023-03-07T20:08:47;11.23;;;4.68;;
62071;SDS011;48031;48.542;13.232;2023-03-07T20:12:51;6.55;;;3.92;;
62071;SDS011;48031;48.542;13.232;2023-03-07T20:16:55;9.60;;;4.93;;
62071;SDS011;48031;48.542;13.232;2023-03-07T20:21:00;8.73;;;4.40;;
62071;SDS011;48031;48.542;13.232;2023-03-07T20:25:03;8.52;;;4.78;;
62071;SDS011;48031;48.542;13.232;2023-03-07T20:29:06;11.18;;;4.93;;
62071;SDS011;48031;48.542;13.232;2023-03-07T20:33:09;7.85;;;4.35;;
62071;SDS011;48031;48.542;13.232;2023-03-07T20:37:11;12.32;;;4.47;;
62071;SDS011;48031;48.542;13.232;2023-03-07T20:41:13;8.23;;;3.80;;
62071;SDS011;48031;48.542;13.232;2023-03-07T20:45:16;8.05;;;4.25;;
62071;SDS011;48031;48.542;13.232;2023-03-07T20:49:18;7.90;;;3.60;;
62071;SDS011;48031;48.542;13.232;2023-03-07T20:53:20;10.00;;;4.35;;
62071;SDS011;48031;48.542;13.232;2023-03-07T20:57:21;7.97;;;3.97;;
62071;SDS011;48031;48.542;13.232;2023-03-07T21:01:24;9.00;;;4.55;;
62071;SDS011;48031;48.542;13.232;2023-03-07T21:05:28;8.80;;;4.88;;
62071;SDS011;48031;48.542;13.232;2023-03-07T21:09:30;10.70;;;5.28;;
62071;SDS011;48031;48.542;13.232;2023-03-07T21:13:32;9.63;;;4.78;;
62071;SDS011;48031;48.542;13.232;2023-03-07T21:17:36;9.52;;;4.72;;
62071;SDS011;48031;48.542;13.232;2023-03-07T21:21:38;8.43;;;4.70;;
62071;SDS011;48031;48.542;13.232;2023-03-07T21:25:40;8.32;;;4.57;;
62071;SDS011;48031;48.542;13.232;2023-03-07T21:29:42;8.45;;;4.38;;
62071;SDS011;48031;48.542;13.232;2023-03-07T21:33:45;11.18;;;5.60;;
62071;SDS011;48031;48.542;13.232;2023-03-07T21:37:48;9.15;;;5.22;;
62071;SDS011;48031;48.542;13.232;2023-03-07T21:41:50;9.73;;;4.90;;
62071;SDS011;48031;48.542;13.232;2023-03-07T21:45:52;10.43;;;4.97;;
62071;SDS011;48031;48.542;13.232;2023-03-07T21:49:54;8.73;;;4.30;;
62071;SDS011;48031;48.542;13.232;2023-03-07T21:53:56;11.10;;;4.90;;
62071;SDS011;48031;48.542;13.232;2023-03-07T21:57:59;8.20;;;4.95;;
62071;SDS011;48031;48.542;13.232;2023-03-07T22:02:01;7.95;;;4.80;;
62071;SDS011;48031;48.542;13.232;2023-03-07T22:06:07;9.38;;;4.00;;
62071;SDS011;48031;48.542;13.232;2023-03-07T22:10:10;7.78;;;4.25;;
62071;SDS011;48031;48.542;13.232;2023-03-07T22:14:12;7.93;;;4.25;;
62071;SDS011;48031;48.542;13.232;2023-03-07T22:18:14;8.80;;;4.47;;
62071;SDS011;48031;48.542;13.232;2023-03-07T22:22:18;7.90;;;4.05;;
62071;SDS011;48031;48.542;13.232;2023-03-07T22:26:20;7.75;;;3.95;;
62071;SDS011;48031;48.542;13.232;2023-03-07T22:30:22;8.45;;;4.35;;
62071;SDS011;48031;48.542;13.232;2023-03-07T22:34:24;7.85;;;4.00;;
62071;SDS011;48031;48.542;13.232;2023-03-07T22:38:26;9.13;;;4.15;;
62071;SDS011;48031;48.542;13.232;2023-03-07T22:42:29;6.78;;;4.03;;
62071;SDS011;48031;48.542;13.232;2023-03-07T22:46:31;6.28;;;3.40;;
62071;SDS011;48031;48.542;13.232;2023-03-07T22:50:33;7.05;;;3.50;;
62071;SDS011;48031;48.542;13.232;2023-03-07T22:54:35;5.82;;;3.58;;
62071;SDS011;48031;48.542;13.232;2023-03-07T22:58:39;6.78;;;3.60;;
62071;SDS011;48031;48.542;13.232;2023-03-07T23:02:41;6.97;;;4.00;;
62071;SDS011;48031;48.542;13.232;2023-03-07T23:06:43;7.47;;;3.20;;
62071;SDS011;48031;48.542;13.232;2023-03-07T23:10:45;6.28;;;3.60;;
62071;SDS011;48031;48.542;13.232;2023-03-07T23:14:47;8.07;;;4.10;;
62071;SDS011;48031;48.542;13.232;2023-03-07T23:18:49;8.57;;;4.82;;
62071;SDS011;48031;48.542;13.232;2023-03-07T23:22:52;8.00;;;4.25;;
62071;SDS011;48031;48.542;13.232;2023-03-07T23:26:54;7.95;;;3.90;;
62071;SDS011;48031;48.542;13.232;2023-03-07T23:30:55;8.82;;;4.25;;
62071;SDS011;48031;48.542;13.232;2023-03-07T23:34:58;7.43;;;4.20;;
62071;SDS011;48031;48.542;13.232;2023-03-07T23:39:00;6.63;;;3.63;;
62071;SDS011;48031;48.542;13.232;2023-03-07T23:43:02;8.52;;;3.90;;
62071;SDS011;48031;48.542;13.232;2023-03-07T23:47:04;8.80;;;4.32;;
62071;SDS011;48031;48.542;13.232;2023-03-07T23:51:06;7.95;;;4.30;;
62071;SDS011;48031;48.542;13.232;2023-03-07T23:55:08;15.38;;;5.03;;
62071;SDS011;48031;48.542;13.232;2023-03-07T23:59:10;8.02;;;4.60;;
